Terminal Aerodrome Forecast
Issued by NWS Cleveland, OH

Home | Current Version | Previous Version | Graphics & Text | Print | Product List | Glossary On
Versions: 1 2 3 4 5 6 7 8 9 10 11 12 13 14 15 16 17 18 19 20 21
000
FTUS41 KCLE 291700 RRA
TAFTOL
TAF
KTOL 291746Z 2918/3018 28005KT P6SM SKC
     FM300000 26003KT P6SM SCT100 BKN250
     FM300800 29005KT 6SM -SHRA SCT015 BKN040 OVC100
     FM301000 32006KT 4SM -DZ BR SCT006 OVC015
     FM301200 32006KT 6SM BR OVC006
     FM301600 34006KT P6SM OVC012=

USA.gov is the U.S. government's official web portal to all federal, state and local government web resources and services.